sensor_id;sensor_type;location;lat;lon;timestamp;P1;durP1;ratioP1;P2;durP2;ratioP2
6133;SDS011;3098;42.678;23.364;2023-09-19T00:00:07;6.18;;;4.70;;
6133;SDS011;3098;42.678;23.364;2023-09-19T00:02:37;12.68;;;4.65;;
6133;SDS011;3098;42.678;23.364;2023-09-19T00:05:05;9.48;;;4.03;;
6133;SDS011;3098;42.678;23.364;2023-09-19T00:07:33;9.85;;;5.07;;
6133;SDS011;3098;42.678;23.364;2023-09-19T00:10:02;6.72;;;4.43;;
6133;SDS011;3098;42.678;23.364;2023-09-19T00:12:30;14.07;;;4.57;;
6133;SDS011;3098;42.678;23.364;2023-09-19T00:14:57;8.23;;;4.30;;
6133;SDS011;3098;42.678;23.364;2023-09-19T00:17:27;5.80;;;4.25;;
6133;SDS011;3098;42.678;23.364;2023-09-19T00:19:57;10.52;;;4.72;;
6133;SDS011;3098;42.678;23.364;2023-09-19T00:22:25;7.75;;;4.70;;
6133;SDS011;3098;42.678;23.364;2023-09-19T00:24:52;6.50;;;4.32;;
6133;SDS011;3098;42.678;23.364;2023-09-19T00:27:20;12.05;;;4.47;;
6133;SDS011;3098;42.678;23.364;2023-09-19T00:29:47;9.00;;;4.30;;
6133;SDS011;3098;42.678;23.364;2023-09-19T00:32:14;9.85;;;4.43;;
6133;SDS011;3098;42.678;23.364;2023-09-19T00:34:42;7.95;;;4.45;;
6133;SDS011;3098;42.678;23.364;2023-09-19T00:37:09;6.85;;;4.53;;
6133;SDS011;3098;42.678;23.364;2023-09-19T00:39:38;8.48;;;4.78;;
6133;SDS011;3098;42.678;23.364;2023-09-19T00:42:06;7.57;;;4.43;;
6133;SDS011;3098;42.678;23.364;2023-09-19T00:44:33;10.48;;;4.28;;
6133;SDS011;3098;42.678;23.364;2023-09-19T00:47:02;9.77;;;4.75;;
6133;SDS011;3098;42.678;23.364;2023-09-19T00:49:30;8.23;;;4.20;;
6133;SDS011;3098;42.678;23.364;2023-09-19T00:52:00;10.48;;;4.93;;
6133;SDS011;3098;42.678;23.364;2023-09-19T00:54:30;14.32;;;4.82;;
6133;SDS011;3098;42.678;23.364;2023-09-19T00:56:58;8.95;;;4.70;;
6133;SDS011;3098;42.678;23.364;2023-09-19T00:59:25;9.38;;;4.95;;
6133;SDS011;3098;42.678;23.364;2023-09-19T01:01:53;13.32;;;4.90;;
6133;SDS011;3098;42.678;23.364;2023-09-19T01:04:21;8.80;;;4.82;;
6133;SDS011;3098;42.678;23.364;2023-09-19T01:06:49;8.35;;;4.78;;
6133;SDS011;3098;42.678;23.364;2023-09-19T01:09:19;8.00;;;4.75;;
6133;SDS011;3098;42.678;23.364;2023-09-19T01:11:47;10.23;;;5.28;;
6133;SDS011;3098;42.678;23.364;2023-09-19T01:14:21;9.63;;;5.53;;
6133;SDS011;3098;42.678;23.364;2023-09-19T01:17:00;9.20;;;5.38;;
6133;SDS011;3098;42.678;23.364;2023-09-19T01:19:39;9.82;;;5.28;;
6133;SDS011;3098;42.678;23.364;2023-09-19T01:22:30;14.00;;;5.90;;
6133;SDS011;3098;42.678;23.364;2023-09-19T01:28:25;12.25;;;5.70;;
6133;SDS011;3098;42.678;23.364;2023-09-19T01:31:04;10.10;;;5.47;;
6133;SDS011;3098;42.678;23.364;2023-09-19T01:33:57;10.25;;;5.97;;
6133;SDS011;3098;42.678;23.364;2023-09-19T01:36:26;9.23;;;5.80;;
6133;SDS011;3098;42.678;23.364;2023-09-19T01:38:55;10.07;;;6.55;;
6133;SDS011;3098;42.678;23.364;2023-09-19T01:41:51;11.57;;;5.65;;
6133;SDS011;3098;42.678;23.364;2023-09-19T01:44:31;12.70;;;6.25;;
6133;SDS011;3098;42.678;23.364;2023-09-19T01:47:17;12.35;;;7.45;;
6133;SDS011;3098;42.678;23.364;2023-09-19T01:49:55;15.20;;;6.65;;
6133;SDS011;3098;42.678;23.364;2023-09-19T01:52:28;10.20;;;6.28;;
6133;SDS011;3098;42.678;23.364;2023-09-19T01:55:05;12.73;;;7.63;;
6133;SDS011;3098;42.678;23.364;2023-09-19T01:57:37;12.43;;;6.72;;
6133;SDS011;3098;42.678;23.364;2023-09-19T02:00:10;15.13;;;7.35;;
6133;SDS011;3098;42.678;23.364;2023-09-19T02:02:40;12.10;;;6.35;;
6133;SDS011;3098;42.678;23.364;2023-09-19T02:05:10;12.73;;;7.38;;
6133;SDS011;3098;42.678;23.364;2023-09-19T02:07:38;12.85;;;6.97;;
6133;SDS011;3098;42.678;23.364;2023-09-19T02:10:06;10.90;;;6.40;;
6133;SDS011;3098;42.678;23.364;2023-09-19T02:12:35;9.60;;;5.88;;
6133;SDS011;3098;42.678;23.364;2023-09-19T02:15:03;9.07;;;5.82;;
6133;SDS011;3098;42.678;23.364;2023-09-19T02:17:32;10.23;;;5.95;;
6133;SDS011;3098;42.678;23.364;2023-09-19T02:20:00;8.23;;;5.13;;
6133;SDS011;3098;42.678;23.364;2023-09-19T02:22:28;10.68;;;5.65;;
6133;SDS011;3098;42.678;23.364;2023-09-19T02:24:55;15.50;;;6.70;;
6133;SDS011;3098;42.678;23.364;2023-09-19T02:27:26;9.90;;;5.53;;
6133;SDS011;3098;42.678;23.364;2023-09-19T02:29:52;8.45;;;5.55;;
6133;SDS011;3098;42.678;23.364;2023-09-19T02:32:21;9.65;;;5.35;;
6133;SDS011;3098;42.678;23.364;2023-09-19T02:34:48;10.45;;;5.82;;
6133;SDS011;3098;42.678;23.364;2023-09-19T02:37:18;10.18;;;6.00;;
6133;SDS011;3098;42.678;23.364;2023-09-19T02:39:45;9.80;;;5.53;;
6133;SDS011;3098;42.678;23.364;2023-09-19T02:42:12;12.88;;;5.72;;
6133;SDS011;3098;42.678;23.364;2023-09-19T02:44:39;9.93;;;5.68;;
6133;SDS011;3098;42.678;23.364;2023-09-19T02:47:06;8.32;;;5.18;;
6133;SDS011;3098;42.678;23.364;2023-09-19T02:49:34;12.27;;;5.90;;
6133;SDS011;3098;42.678;23.364;2023-09-19T02:52:01;9.13;;;5.50;;
6133;SDS011;3098;42.678;23.364;2023-09-19T02:54:31;9.70;;;5.47;;
6133;SDS011;3098;42.678;23.364;2023-09-19T02:56:58;13.55;;;6.30;;
6133;SDS011;3098;42.678;23.364;2023-09-19T02:59:25;13.20;;;6.40;;
6133;SDS011;3098;42.678;23.364;2023-09-19T03:01:53;15.75;;;6.75;;
6133;SDS011;3098;42.678;23.364;2023-09-19T03:04:20;12.48;;;5.95;;
6133;SDS011;3098;42.678;23.364;2023-09-19T03:06:47;10.93;;;5.78;;
6133;SDS011;3098;42.678;23.364;2023-09-19T03:09:16;9.05;;;5.70;;
6133;SDS011;3098;42.678;23.364;2023-09-19T03:11:45;10.82;;;5.45;;
6133;SDS011;3098;42.678;23.364;2023-09-19T03:14:13;10.95;;;6.30;;
6133;SDS011;3098;42.678;23.364;2023-09-19T03:16:41;14.35;;;7.45;;
6133;SDS011;3098;42.678;23.364;2023-09-19T03:19:09;12.73;;;6.68;;
6133;SDS011;3098;42.678;23.364;2023-09-19T03:21:37;9.73;;;5.40;;
6133;SDS011;3098;42.678;23.364;2023-09-19T03:24:05;10.40;;;5.63;;
6133;SDS011;3098;42.678;23.364;2023-09-19T03:26:32;11.88;;;5.47;;
6133;SDS011;3098;42.678;23.364;2023-09-19T03:29:02;11.20;;;6.22;;
6133;SDS011;3098;42.678;23.364;2023-09-19T03:31:31;15.13;;;6.13;;
6133;SDS011;3098;42.678;23.364;2023-09-19T03:33:58;11.52;;;5.78;;
6133;SDS011;3098;42.678;23.364;2023-09-19T03:36:25;11.05;;;5.82;;
6133;SDS011;3098;42.678;23.364;2023-09-19T03:38:55;13.10;;;6.75;;
6133;SDS011;3098;42.678;23.364;2023-09-19T03:41:22;12.05;;;7.13;;
6133;SDS011;3098;42.678;23.364;2023-09-19T03:43:49;12.18;;;7.13;;
6133;SDS011;3098;42.678;23.364;2023-09-19T03:46:18;13.07;;;7.35;;
6133;SDS011;3098;42.678;23.364;2023-09-19T03:48:44;15.65;;;7.90;;
6133;SDS011;3098;42.678;23.364;2023-09-19T03:51:11;16.02;;;7.63;;
6133;SDS011;3098;42.678;23.364;2023-09-19T03:53:38;17.80;;;8.35;;
6133;SDS011;3098;42.678;23.364;2023-09-19T03:56:06;14.77;;;7.72;;
6133;SDS011;3098;42.678;23.364;2023-09-19T03:58:33;13.10;;;7.63;;
6133;SDS011;3098;42.678;23.364;2023-09-19T04:01:04;14.65;;;7.28;;
6133;SDS011;3098;42.678;23.364;2023-09-19T04:03:33;11.43;;;6.15;;
6133;SDS011;3098;42.678;23.364;2023-09-19T04:06:11;12.15;;;6.53;;
6133;SDS011;3098;42.678;23.364;2023-09-19T04:08:38;10.82;;;6.53;;
6133;SDS011;3098;42.678;23.364;2023-09-19T04:11:06;12.35;;;6.38;;
6133;SDS011;3098;42.678;23.364;2023-09-19T04:13:33;9.85;;;5.97;;
6133;SDS011;3098;42.678;23.364;2023-09-19T04:16:02;11.07;;;5.30;;
6133;SDS011;3098;42.678;23.364;2023-09-19T04:18:29;17.38;;;6.00;;
6133;SDS011;3098;42.678;23.364;2023-09-19T04:21:00;9.98;;;5.57;;
6133;SDS011;3098;42.678;23.364;2023-09-19T04:23:29;10.77;;;5.85;;
6133;SDS011;3098;42.678;23.364;2023-09-19T04:25:57;11.43;;;6.00;;
6133;SDS011;3098;42.678;23.364;2023-09-19T04:28:25;12.10;;;5.85;;
6133;SDS011;3098;42.678;23.364;2023-09-19T04:30:52;11.75;;;5.65;;
6133;SDS011;3098;42.678;23.364;2023-09-19T04:33:20;8.38;;;5.57;;
6133;SDS011;3098;42.678;23.364;2023-09-19T04:35:48;14.02;;;6.32;;
6133;SDS011;3098;42.678;23.364;2023-09-19T04:38:18;10.25;;;5.93;;
6133;SDS011;3098;42.678;23.364;2023-09-19T04:40:45;16.70;;;6.18;;
6133;SDS011;3098;42.678;23.364;2023-09-19T04:43:12;15.25;;;6.15;;
6133;SDS011;3098;42.678;23.364;2023-09-19T04:45:40;9.55;;;6.30;;
6133;SDS011;3098;42.678;23.364;2023-09-19T04:48:07;13.07;;;5.95;;
6133;SDS011;3098;42.678;23.364;2023-09-19T04:50:36;15.20;;;5.68;;
6133;SDS011;3098;42.678;23.364;2023-09-19T04:53:04;14.10;;;7.00;;
6133;SDS011;3098;42.678;23.364;2023-09-19T04:55:33;10.20;;;5.75;;
6133;SDS011;3098;42.678;23.364;2023-09-19T04:58:01;11.18;;;6.43;;
6133;SDS011;3098;42.678;23.364;2023-09-19T05:00:30;10.52;;;6.30;;
6133;SDS011;3098;42.678;23.364;2023-09-19T05:03:00;9.63;;;6.50;;
6133;SDS011;3098;42.678;23.364;2023-09-19T05:05:29;19.27;;;5.88;;
6133;SDS011;3098;42.678;23.364;2023-09-19T05:07:56;9.35;;;5.88;;
6133;SDS011;3098;42.678;23.364;2023-09-19T05:10:24;9.68;;;5.95;;
6133;SDS011;3098;42.678;23.364;2023-09-19T05:12:54;9.48;;;6.22;;
6133;SDS011;3098;42.678;23.364;2023-09-19T05:15:21;10.95;;;5.88;;
6133;SDS011;3098;42.678;23.364;2023-09-19T05:17:49;10.68;;;6.13;;
6133;SDS011;3098;42.678;23.364;2023-09-19T05:20:16;15.77;;;6.50;;
6133;SDS011;3098;42.678;23.364;2023-09-19T05:22:50;9.88;;;6.05;;
6133;SDS011;3098;42.678;23.364;2023-09-19T05:25:23;7.88;;;5.28;;
6133;SDS011;3098;42.678;23.364;2023-09-19T05:27:56;12.50;;;4.97;;
6133;SDS011;3098;42.678;23.364;2023-09-19T05:30:24;9.75;;;5.50;;
6133;SDS011;3098;42.678;23.364;2023-09-19T05:32:52;12.68;;;5.93;;
6133;SDS011;3098;42.678;23.364;2023-09-19T05:35:21;6.47;;;4.60;;
6133;SDS011;3098;42.678;23.364;2023-09-19T05:37:48;7.10;;;4.15;;
6133;SDS011;3098;42.678;23.364;2023-09-19T05:40:17;9.40;;;4.35;;
6133;SDS011;3098;42.678;23.364;2023-09-19T05:42:44;7.55;;;4.03;;
6133;SDS011;3098;42.678;23.364;2023-09-19T05:45:13;7.45;;;4.25;;
6133;SDS011;3098;42.678;23.364;2023-09-19T05:47:44;6.30;;;4.10;;
6133;SDS011;3098;42.678;23.364;2023-09-19T05:50:11;10.10;;;4.05;;
6133;SDS011;3098;42.678;23.364;2023-09-19T05:52:40;6.85;;;4.13;;
6133;SDS011;3098;42.678;23.364;2023-09-19T05:55:09;5.70;;;3.42;;
6133;SDS011;3098;42.678;23.364;2023-09-19T05:57:36;6.78;;;3.47;;
6133;SDS011;3098;42.678;23.364;2023-09-19T06:00:06;5.80;;;3.72;;
6133;SDS011;3098;42.678;23.364;2023-09-19T06:02:37;8.35;;;4.15;;
6133;SDS011;3098;42.678;23.364;2023-09-19T06:05:05;6.78;;;3.55;;
6133;SDS011;3098;42.678;23.364;2023-09-19T06:07:35;6.03;;;4.00;;
6133;SDS011;3098;42.678;23.364;2023-09-19T06:10:04;8.05;;;3.70;;
6133;SDS011;3098;42.678;23.364;2023-09-19T06:12:33;6.30;;;3.55;;
6133;SDS011;3098;42.678;23.364;2023-09-19T06:15:05;10.70;;;3.40;;
6133;SDS011;3098;42.678;23.364;2023-09-19T06:17:34;8.23;;;3.95;;
6133;SDS011;3098;42.678;23.364;2023-09-19T06:20:05;7.57;;;4.03;;
6133;SDS011;3098;42.678;23.364;2023-09-19T06:22:37;6.75;;;3.75;;
6133;SDS011;3098;42.678;23.364;2023-09-19T06:25:06;7.18;;;3.55;;
6133;SDS011;3098;42.678;23.364;2023-09-19T06:27:36;6.28;;;4.00;;
6133;SDS011;3098;42.678;23.364;2023-09-19T06:30:07;8.82;;;4.40;;
6133;SDS011;3098;42.678;23.364;2023-09-19T06:32:34;7.00;;;4.25;;
6133;SDS011;3098;42.678;23.364;2023-09-19T06:35:02;8.50;;;4.15;;
6133;SDS011;3098;42.678;23.364;2023-09-19T06:37:34;5.40;;;3.78;;
6133;SDS011;3098;42.678;23.364;2023-09-19T06:40:04;12.88;;;5.00;;
6133;SDS011;3098;42.678;23.364;2023-09-19T06:42:33;7.53;;;3.92;;
6133;SDS011;3098;42.678;23.364;2023-09-19T06:45:02;8.05;;;4.03;;
6133;SDS011;3098;42.678;23.364;2023-09-19T06:47:30;6.00;;;3.55;;
6133;SDS011;3098;42.678;23.364;2023-09-19T06:49:58;10.13;;;3.90;;
6133;SDS011;3098;42.678;23.364;2023-09-19T06:52:27;7.13;;;3.53;;
6133;SDS011;3098;42.678;23.364;2023-09-19T06:54:56;7.53;;;3.58;;
6133;SDS011;3098;42.678;23.364;2023-09-19T06:57:24;5.47;;;3.55;;
6133;SDS011;3098;42.678;23.364;2023-09-19T06:59:52;6.07;;;3.42;;
6133;SDS011;3098;42.678;23.364;2023-09-19T07:02:19;6.07;;;3.35;;
6133;SDS011;3098;42.678;23.364;2023-09-19T07:04:47;8.00;;;3.78;;
6133;SDS011;3098;42.678;23.364;2023-09-19T07:07:14;4.93;;;3.75;;
6133;SDS011;3098;42.678;23.364;2023-09-19T07:09:42;7.53;;;3.90;;
6133;SDS011;3098;42.678;23.364;2023-09-19T07:12:11;6.28;;;3.60;;
6133;SDS011;3098;42.678;23.364;2023-09-19T07:14:39;8.15;;;3.65;;
6133;SDS011;3098;42.678;23.364;2023-09-19T07:17:06;7.20;;;3.90;;
6133;SDS011;3098;42.678;23.364;2023-09-19T07:19:34;5.15;;;3.10;;
6133;SDS011;3098;42.678;23.364;2023-09-19T07:22:01;5.63;;;3.10;;
6133;SDS011;3098;42.678;23.364;2023-09-19T07:24:30;5.18;;;3.17;;
6133;SDS011;3098;42.678;23.364;2023-09-19T07:26:58;13.48;;;3.78;;
6133;SDS011;3098;42.678;23.364;2023-09-19T07:29:27;5.93;;;3.63;;
6133;SDS011;3098;42.678;23.364;2023-09-19T07:31:54;4.53;;;3.28;;
6133;SDS011;3098;42.678;23.364;2023-09-19T07:34:21;7.70;;;3.47;;
6133;SDS011;3098;42.678;23.364;2023-09-19T07:36:49;8.90;;;3.60;;
6133;SDS011;3098;42.678;23.364;2023-09-19T07:39:17;9.48;;;4.28;;
6133;SDS011;3098;42.678;23.364;2023-09-19T07:41:44;6.78;;;3.90;;
6133;SDS011;3098;42.678;23.364;2023-09-19T07:44:11;8.48;;;4.05;;
6133;SDS011;3098;42.678;23.364;2023-09-19T07:46:41;9.57;;;3.80;;
6133;SDS011;3098;42.678;23.364;2023-09-19T07:49:09;4.72;;;3.38;;
6133;SDS011;3098;42.678;23.364;2023-09-19T07:51:36;7.57;;;3.58;;
6133;SDS011;3098;42.678;23.364;2023-09-19T07:54:05;7.65;;;4.18;;
6133;SDS011;3098;42.678;23.364;2023-09-19T07:56:33;6.95;;;3.72;;
6133;SDS011;3098;42.678;23.364;2023-09-19T07:59:00;10.60;;;4.68;;
6133;SDS011;3098;42.678;23.364;2023-09-19T08:01:27;13.63;;;4.20;;
6133;SDS011;3098;42.678;23.364;2023-09-19T08:03:56;13.88;;;4.35;;
6133;SDS011;3098;42.678;23.364;2023-09-19T08:06:24;9.75;;;4.22;;
6133;SDS011;3098;42.678;23.364;2023-09-19T08:08:54;7.25;;;4.25;;
6133;SDS011;3098;42.678;23.364;2023-09-19T08:11:23;8.63;;;4.13;;
6133;SDS011;3098;42.678;23.364;2023-09-19T08:13:50;11.13;;;4.22;;
6133;SDS011;3098;42.678;23.364;2023-09-19T08:16:17;6.38;;;4.10;;
6133;SDS011;3098;42.678;23.364;2023-09-19T08:18:47;9.32;;;4.05;;
6133;SDS011;3098;42.678;23.364;2023-09-19T08:21:21;8.75;;;4.20;;
6133;SDS011;3098;42.678;23.364;2023-09-19T08:23:49;6.97;;;4.93;;
6133;SDS011;3098;42.678;23.364;2023-09-19T08:26:16;13.50;;;4.13;;
6133;SDS011;3098;42.678;23.364;2023-09-19T08:28:45;7.07;;;3.92;;
6133;SDS011;3098;42.678;23.364;2023-09-19T08:31:13;6.65;;;3.95;;
6133;SDS011;3098;42.678;23.364;2023-09-19T08:33:42;6.28;;;4.03;;
6133;SDS011;3098;42.678;23.364;2023-09-19T08:36:10;7.20;;;3.85;;
6133;SDS011;3098;42.678;23.364;2023-09-19T08:38:40;5.20;;;3.75;;
6133;SDS011;3098;42.678;23.364;2023-09-19T08:41:07;6.68;;;3.47;;
6133;SDS011;3098;42.678;23.364;2023-09-19T08:43:35;9.05;;;3.88;;
6133;SDS011;3098;42.678;23.364;2023-09-19T08:46:07;9.50;;;4.03;;
6133;SDS011;3098;42.678;23.364;2023-09-19T08:48:38;5.72;;;3.50;;
6133;SDS011;3098;42.678;23.364;2023-09-19T08:51:10;4.38;;;3.33;;
6133;SDS011;3098;42.678;23.364;2023-09-19T08:53:47;7.95;;;4.43;;
6133;SDS011;3098;42.678;23.364;2023-09-19T08:56:18;6.30;;;4.32;;
6133;SDS011;3098;42.678;23.364;2023-09-19T08:58:48;6.47;;;4.20;;
6133;SDS011;3098;42.678;23.364;2023-09-19T09:01:18;7.03;;;3.95;;
6133;SDS011;3098;42.678;23.364;2023-09-19T09:03:49;5.47;;;4.18;;
6133;SDS011;3098;42.678;23.364;2023-09-19T09:06:19;10.48;;;4.70;;
6133;SDS011;3098;42.678;23.364;2023-09-19T09:08:48;5.15;;;3.60;;
6133;SDS011;3098;42.678;23.364;2023-09-19T09:11:17;8.00;;;3.95;;
6133;SDS011;3098;42.678;23.364;2023-09-19T09:13:45;6.43;;;4.07;;
6133;SDS011;3098;42.678;23.364;2023-09-19T09:16:12;6.15;;;4.30;;
6133;SDS011;3098;42.678;23.364;2023-09-19T09:18:43;6.90;;;4.07;;
6133;SDS011;3098;42.678;23.364;2023-09-19T09:21:11;4.72;;;3.70;;
6133;SDS011;3098;42.678;23.364;2023-09-19T09:23:41;6.22;;;3.67;;
6133;SDS011;3098;42.678;23.364;2023-09-19T09:26:10;6.57;;;4.25;;
6133;SDS011;3098;42.678;23.364;2023-09-19T09:28:44;8.13;;;3.80;;
6133;SDS011;3098;42.678;23.364;2023-09-19T09:31:21;6.60;;;4.03;;
6133;SDS011;3098;42.678;23.364;2023-09-19T09:33:52;7.47;;;4.03;;
6133;SDS011;3098;42.678;23.364;2023-09-19T09:36:33;9.60;;;3.92;;
6133;SDS011;3098;42.678;23.364;2023-09-19T09:39:02;8.07;;;4.30;;
6133;SDS011;3098;42.678;23.364;2023-09-19T09:41:42;9.45;;;4.25;;
6133;SDS011;3098;42.678;23.364;2023-09-19T09:44:14;5.90;;;3.92;;
6133;SDS011;3098;42.678;23.364;2023-09-19T09:46:43;6.75;;;4.50;;
6133;SDS011;3098;42.678;23.364;2023-09-19T09:49:27;6.03;;;3.83;;
6133;SDS011;3098;42.678;23.364;2023-09-19T09:51:59;6.15;;;3.92;;
6133;SDS011;3098;42.678;23.364;2023-09-19T09:54:31;8.07;;;3.78;;
6133;SDS011;3098;42.678;23.364;2023-09-19T09:57:04;5.15;;;3.65;;
6133;SDS011;3098;42.678;23.364;2023-09-19T09:59:45;11.93;;;3.78;;
6133;SDS011;3098;42.678;23.364;2023-09-19T10:02:15;9.45;;;3.80;;
6133;SDS011;3098;42.678;23.364;2023-09-19T10:04:49;9.48;;;4.30;;
6133;SDS011;3098;42.678;23.364;2023-09-19T10:07:25;5.32;;;3.78;;
6133;SDS011;3098;42.678;23.364;2023-09-19T10:09:57;7.40;;;4.43;;
6133;SDS011;3098;42.678;23.364;2023-09-19T10:12:37;8.63;;;3.97;;
6133;SDS011;3098;42.678;23.364;2023-09-19T10:15:08;9.05;;;4.30;;
6133;SDS011;3098;42.678;23.364;2023-09-19T10:17:42;5.53;;;3.58;;
6133;SDS011;3098;42.678;23.364;2023-09-19T10:20:14;6.07;;;3.97;;
6133;SDS011;3098;42.678;23.364;2023-09-19T10:22:50;9.20;;;4.20;;
6133;SDS011;3098;42.678;23.364;2023-09-19T10:25:24;5.93;;;3.88;;
6133;SDS011;3098;42.678;23.364;2023-09-19T10:27:55;6.03;;;3.92;;
6133;SDS011;3098;42.678;23.364;2023-09-19T10:30:25;8.40;;;4.28;;
6133;SDS011;3098;42.678;23.364;2023-09-19T10:32:57;6.43;;;3.72;;
6133;SDS011;3098;42.678;23.364;2023-09-19T10:35:28;7.95;;;4.18;;
6133;SDS011;3098;42.678;23.364;2023-09-19T10:37:57;9.63;;;4.25;;
6133;SDS011;3098;42.678;23.364;2023-09-19T10:40:28;12.65;;;4.70;;
6133;SDS011;3098;42.678;23.364;2023-09-19T10:43:02;5.60;;;4.25;;
6133;SDS011;3098;42.678;23.364;2023-09-19T10:45:32;6.47;;;3.80;;
6133;SDS011;3098;42.678;23.364;2023-09-19T10:48:00;8.07;;;4.32;;
6133;SDS011;3098;42.678;23.364;2023-09-19T10:50:31;6.15;;;4.20;;
6133;SDS011;3098;42.678;23.364;2023-09-19T10:53:01;6.50;;;3.70;;
6133;SDS011;3098;42.678;23.364;2023-09-19T10:55:33;5.30;;;3.88;;
6133;SDS011;3098;42.678;23.364;2023-09-19T10:58:04;6.97;;;4.20;;
6133;SDS011;3098;42.678;23.364;2023-09-19T11:00:51;5.93;;;4.15;;
6133;SDS011;3098;42.678;23.364;2023-09-19T11:03:21;6.35;;;4.50;;
6133;SDS011;3098;42.678;23.364;2023-09-19T11:06:02;7.93;;;4.38;;
6133;SDS011;3098;42.678;23.364;2023-09-19T11:11:46;6.15;;;3.80;;
6133;SDS011;3098;42.678;23.364;2023-09-19T11:14:29;6.07;;;4.30;;
6133;SDS011;3098;42.678;23.364;2023-09-19T11:20:17;10.82;;;4.05;;
6133;SDS011;3098;42.678;23.364;2023-09-19T11:23:19;7.13;;;4.32;;
6133;SDS011;3098;42.678;23.364;2023-09-19T11:25:50;10.98;;;5.05;;
6133;SDS011;3098;42.678;23.364;2023-09-19T11:28:31;8.27;;;5.40;;
6133;SDS011;3098;42.678;23.364;2023-09-19T11:37:05;6.15;;;4.10;;
6133;SDS011;3098;42.678;23.364;2023-09-19T11:40:11;6.82;;;4.20;;
6133;SDS011;3098;42.678;23.364;2023-09-19T11:42:42;6.63;;;4.13;;
6133;SDS011;3098;42.678;23.364;2023-09-19T11:48:26;7.00;;;4.22;;
6133;SDS011;3098;42.678;23.364;2023-09-19T11:50:55;10.65;;;4.85;;
6133;SDS011;3098;42.678;23.364;2023-09-19T11:53:26;6.03;;;4.40;;
6133;SDS011;3098;42.678;23.364;2023-09-19T11:56:01;8.73;;;4.05;;
6133;SDS011;3098;42.678;23.364;2023-09-19T11:58:35;5.95;;;4.10;;
6133;SDS011;3098;42.678;23.364;2023-09-19T12:01:05;9.23;;;4.30;;
6133;SDS011;3098;42.678;23.364;2023-09-19T12:03:39;8.93;;;4.95;;
6133;SDS011;3098;42.678;23.364;2023-09-19T12:06:13;8.60;;;4.80;;
6133;SDS011;3098;42.678;23.364;2023-09-19T12:08:43;8.63;;;4.97;;
6133;SDS011;3098;42.678;23.364;2023-09-19T12:11:13;8.82;;;4.40;;
6133;SDS011;3098;42.678;23.364;2023-09-19T12:13:42;10.32;;;4.55;;
6133;SDS011;3098;42.678;23.364;2023-09-19T12:16:15;6.32;;;4.13;;
6133;SDS011;3098;42.678;23.364;2023-09-19T12:18:43;10.50;;;4.60;;
6133;SDS011;3098;42.678;23.364;2023-09-19T12:21:25;8.80;;;4.35;;
6133;SDS011;3098;42.678;23.364;2023-09-19T12:24:01;6.53;;;4.88;;
6133;SDS011;3098;42.678;23.364;2023-09-19T12:26:38;9.25;;;4.38;;
6133;SDS011;3098;42.678;23.364;2023-09-19T12:29:16;6.20;;;4.30;;
6133;SDS011;3098;42.678;23.364;2023-09-19T12:31:48;7.55;;;4.53;;
6133;SDS011;3098;42.678;23.364;2023-09-19T12:34:19;10.43;;;4.68;;
6133;SDS011;3098;42.678;23.364;2023-09-19T12:36:47;6.90;;;4.75;;
6133;SDS011;3098;42.678;23.364;2023-09-19T12:39:25;7.50;;;4.07;;
6133;SDS011;3098;42.678;23.364;2023-09-19T12:41:55;8.07;;;4.65;;
6133;SDS011;3098;42.678;23.364;2023-09-19T12:44:22;6.93;;;4.57;;
6133;SDS011;3098;42.678;23.364;2023-09-19T12:46:50;7.65;;;5.15;;
6133;SDS011;3098;42.678;23.364;2023-09-19T12:49:19;9.35;;;4.90;;
6133;SDS011;3098;42.678;23.364;2023-09-19T12:51:48;10.63;;;4.97;;
6133;SDS011;3098;42.678;23.364;2023-09-19T12:54:18;7.03;;;4.80;;
6133;SDS011;3098;42.678;23.364;2023-09-19T12:56:48;8.43;;;4.25;;
6133;SDS011;3098;42.678;23.364;2023-09-19T12:59:15;7.35;;;4.95;;
6133;SDS011;3098;42.678;23.364;2023-09-19T13:01:43;10.13;;;4.97;;
6133;SDS011;3098;42.678;23.364;2023-09-19T13:04:13;6.40;;;4.20;;
6133;SDS011;3098;42.678;23.364;2023-09-19T13:06:43;8.50;;;4.85;;
6133;SDS011;3098;42.678;23.364;2023-09-19T13:09:11;7.80;;;4.78;;
6133;SDS011;3098;42.678;23.364;2023-09-19T13:11:40;8.88;;;4.28;;
6133;SDS011;3098;42.678;23.364;2023-09-19T13:14:18;5.97;;;4.38;;
6133;SDS011;3098;42.678;23.364;2023-09-19T13:16:54;8.63;;;4.72;;
6133;SDS011;3098;42.678;23.364;2023-09-19T13:19:36;7.22;;;4.45;;
6133;SDS011;3098;42.678;23.364;2023-09-19T13:25:03;9.63;;;5.15;;
6133;SDS011;3098;42.678;23.364;2023-09-19T13:27:32;11.30;;;4.65;;
6133;SDS011;3098;42.678;23.364;2023-09-19T13:30:01;6.97;;;4.85;;
6133;SDS011;3098;42.678;23.364;2023-09-19T13:32:31;8.80;;;4.75;;
6133;SDS011;3098;42.678;23.364;2023-09-19T13:34:58;8.57;;;4.20;;
6133;SDS011;3098;42.678;23.364;2023-09-19T13:37:26;9.25;;;4.50;;
6133;SDS011;3098;42.678;23.364;2023-09-19T13:39:53;9.70;;;5.13;;
6133;SDS011;3098;42.678;23.364;2023-09-19T13:42:22;7.53;;;4.75;;
6133;SDS011;3098;42.678;23.364;2023-09-19T13:44:54;6.10;;;4.82;;
6133;SDS011;3098;42.678;23.364;2023-09-19T13:47:23;6.43;;;4.40;;
6133;SDS011;3098;42.678;23.364;2023-09-19T13:49:52;6.20;;;4.38;;
6133;SDS011;3098;42.678;23.364;2023-09-19T13:52:19;5.03;;;4.32;;
6133;SDS011;3098;42.678;23.364;2023-09-19T13:54:48;6.30;;;4.72;;
6133;SDS011;3098;42.678;23.364;2023-09-19T13:57:16;12.40;;;4.57;;
6133;SDS011;3098;42.678;23.364;2023-09-19T13:59:43;7.40;;;4.55;;
6133;SDS011;3098;42.678;23.364;2023-09-19T14:02:11;7.15;;;4.70;;
6133;SDS011;3098;42.678;23.364;2023-09-19T14:04:40;7.90;;;4.82;;
6133;SDS011;3098;42.678;23.364;2023-09-19T14:07:08;5.47;;;4.15;;
6133;SDS011;3098;42.678;23.364;2023-09-19T14:09:36;7.05;;;4.80;;
6133;SDS011;3098;42.678;23.364;2023-09-19T14:12:03;11.20;;;4.72;;
6133;SDS011;3098;42.678;23.364;2023-09-19T14:14:32;9.40;;;4.40;;
6133;SDS011;3098;42.678;23.364;2023-09-19T14:16:59;8.43;;;5.15;;
6133;SDS011;3098;42.678;23.364;2023-09-19T14:19:27;7.20;;;4.10;;
6133;SDS011;3098;42.678;23.364;2023-09-19T14:21:55;8.10;;;4.90;;
6133;SDS011;3098;42.678;23.364;2023-09-19T14:24:23;8.27;;;4.80;;
6133;SDS011;3098;42.678;23.364;2023-09-19T14:26:51;10.02;;;5.15;;
6133;SDS011;3098;42.678;23.364;2023-09-19T14:29:19;7.82;;;5.03;;
6133;SDS011;3098;42.678;23.364;2023-09-19T14:31:47;7.32;;;4.72;;
6133;SDS011;3098;42.678;23.364;2023-09-19T14:34:15;7.28;;;5.43;;
6133;SDS011;3098;42.678;23.364;2023-09-19T14:36:42;9.93;;;5.00;;
6133;SDS011;3098;42.678;23.364;2023-09-19T14:39:11;8.93;;;5.05;;
6133;SDS011;3098;42.678;23.364;2023-09-19T14:41:38;6.63;;;4.78;;
6133;SDS011;3098;42.678;23.364;2023-09-19T14:44:05;7.53;;;4.72;;
6133;SDS011;3098;42.678;23.364;2023-09-19T14:46:32;6.40;;;4.88;;
6133;SDS011;3098;42.678;23.364;2023-09-19T14:49:00;9.15;;;4.68;;
6133;SDS011;3098;42.678;23.364;2023-09-19T14:51:29;7.20;;;4.50;;
6133;SDS011;3098;42.678;23.364;2023-09-19T14:53:56;9.10;;;4.40;;
6133;SDS011;3098;42.678;23.364;2023-09-19T14:56:25;5.90;;;4.55;;
6133;SDS011;3098;42.678;23.364;2023-09-19T14:58:53;8.63;;;4.93;;
6133;SDS011;3098;42.678;23.364;2023-09-19T15:01:21;9.32;;;5.00;;
6133;SDS011;3098;42.678;23.364;2023-09-19T15:03:48;7.50;;;5.10;;
6133;SDS011;3098;42.678;23.364;2023-09-19T15:06:16;12.57;;;5.15;;
6133;SDS011;3098;42.678;23.364;2023-09-19T15:08:45;9.07;;;5.10;;
6133;SDS011;3098;42.678;23.364;2023-09-19T15:11:13;8.30;;;4.88;;
6133;SDS011;3098;42.678;23.364;2023-09-19T15:13:43;7.72;;;5.10;;
6133;SDS011;3098;42.678;23.364;2023-09-19T15:16:12;8.43;;;4.65;;
6133;SDS011;3098;42.678;23.364;2023-09-19T15:18:40;7.97;;;4.50;;
6133;SDS011;3098;42.678;23.364;2023-09-19T15:21:10;7.25;;;4.90;;
6133;SDS011;3098;42.678;23.364;2023-09-19T15:23:40;7.88;;;5.03;;
6133;SDS011;3098;42.678;23.364;2023-09-19T15:26:11;7.43;;;4.97;;
6133;SDS011;3098;42.678;23.364;2023-09-19T15:28:39;10.80;;;4.97;;
6133;SDS011;3098;42.678;23.364;2023-09-19T15:31:09;8.25;;;5.00;;
6133;SDS011;3098;42.678;23.364;2023-09-19T15:33:37;7.22;;;4.90;;
6133;SDS011;3098;42.678;23.364;2023-09-19T15:36:05;7.70;;;5.38;;